sensor_id;sensor_type;location;lat;lon;timestamp;P1;durP1;ratioP1;P2;durP2;ratioP2
20731;SDS011;10527;52.124;5.196;2023-01-15T00:01:56;10.63;;;1.80;;
20731;SDS011;10527;52.124;5.196;2023-01-15T00:04:23;11.23;;;1.77;;
20731;SDS011;10527;52.124;5.196;2023-01-15T00:06:50;7.70;;;1.30;;
20731;SDS011;10527;52.124;5.196;2023-01-15T00:09:19;9.33;;;1.60;;
20731;SDS011;10527;52.124;5.196;2023-01-15T00:11:46;10.03;;;1.53;;
20731;SDS011;10527;52.124;5.196;2023-01-15T00:14:13;9.50;;;2.13;;
20731;SDS011;10527;52.124;5.196;2023-01-15T00:16:40;7.80;;;1.63;;
20731;SDS011;10527;52.124;5.196;2023-01-15T00:19:08;11.00;;;2.70;;
20731;SDS011;10527;52.124;5.196;2023-01-15T00:21:37;10.40;;;1.80;;
20731;SDS011;10527;52.124;5.196;2023-01-15T00:24:04;16.70;;;2.10;;
20731;SDS011;10527;52.124;5.196;2023-01-15T00:26:52;9.87;;;1.80;;
20731;SDS011;10527;52.124;5.196;2023-01-15T00:29:37;6.17;;;1.33;;
20731;SDS011;10527;52.124;5.196;2023-01-15T00:32:05;8.67;;;2.57;;
20731;SDS011;10527;52.124;5.196;2023-01-15T00:34:33;7.70;;;1.73;;
20731;SDS011;10527;52.124;5.196;2023-01-15T00:37:01;7.30;;;1.27;;
20731;SDS011;10527;52.124;5.196;2023-01-15T00:39:28;6.70;;;1.37;;
20731;SDS011;10527;52.124;5.196;2023-01-15T00:41:55;7.40;;;1.97;;
20731;SDS011;10527;52.124;5.196;2023-01-15T00:44:22;11.77;;;1.53;;
20731;SDS011;10527;52.124;5.196;2023-01-15T00:46:49;7.87;;;1.60;;
20731;SDS011;10527;52.124;5.196;2023-01-15T00:49:16;6.10;;;1.20;;
20731;SDS011;10527;52.124;5.196;2023-01-15T00:51:45;11.13;;;2.10;;
20731;SDS011;10527;52.124;5.196;2023-01-15T00:54:13;6.03;;;1.60;;
20731;SDS011;10527;52.124;5.196;2023-01-15T00:56:40;9.90;;;1.50;;
20731;SDS011;10527;52.124;5.196;2023-01-15T00:59:07;6.70;;;1.40;;
20731;SDS011;10527;52.124;5.196;2023-01-15T01:01:34;18.73;;;2.93;;
20731;SDS011;10527;52.124;5.196;2023-01-15T01:04:00;8.10;;;1.53;;
20731;SDS011;10527;52.124;5.196;2023-01-15T01:06:28;5.83;;;1.43;;
20731;SDS011;10527;52.124;5.196;2023-01-15T01:08:55;8.97;;;1.63;;
20731;SDS011;10527;52.124;5.196;2023-01-15T01:11:24;10.17;;;3.30;;
20731;SDS011;10527;52.124;5.196;2023-01-15T01:13:52;6.87;;;1.57;;
20731;SDS011;10527;52.124;5.196;2023-01-15T01:16:25;8.93;;;2.07;;
20731;SDS011;10527;52.124;5.196;2023-01-15T01:19:01;10.77;;;1.87;;
20731;SDS011;10527;52.124;5.196;2023-01-15T01:21:41;7.43;;;1.30;;
20731;SDS011;10527;52.124;5.196;2023-01-15T01:24:10;8.03;;;1.63;;
20731;SDS011;10527;52.124;5.196;2023-01-15T01:26:39;3.00;;;1.17;;
20731;SDS011;10527;52.124;5.196;2023-01-15T01:29:06;7.90;;;1.20;;
20731;SDS011;10527;52.124;5.196;2023-01-15T01:31:33;7.87;;;1.30;;
20731;SDS011;10527;52.124;5.196;2023-01-15T01:34:00;6.37;;;1.53;;
20731;SDS011;10527;52.124;5.196;2023-01-15T01:36:30;5.00;;;1.43;;
20731;SDS011;10527;52.124;5.196;2023-01-15T01:39:01;7.23;;;1.33;;
20731;SDS011;10527;52.124;5.196;2023-01-15T01:41:30;6.20;;;1.43;;
20731;SDS011;10527;52.124;5.196;2023-01-15T01:43:59;8.67;;;1.80;;
20731;SDS011;10527;52.124;5.196;2023-01-15T01:46:53;6.70;;;1.30;;
20731;SDS011;10527;52.124;5.196;2023-01-15T01:49:20;8.70;;;1.63;;
20731;SDS011;10527;52.124;5.196;2023-01-15T01:51:51;10.23;;;2.13;;
20731;SDS011;10527;52.124;5.196;2023-01-15T01:54:26;9.53;;;1.60;;
20731;SDS011;10527;52.124;5.196;2023-01-15T01:56:56;10.20;;;1.30;;
20731;SDS011;10527;52.124;5.196;2023-01-15T01:59:24;7.83;;;1.43;;
20731;SDS011;10527;52.124;5.196;2023-01-15T02:01:52;8.03;;;1.93;;
20731;SDS011;10527;52.124;5.196;2023-01-15T02:04:20;8.93;;;1.50;;
20731;SDS011;10527;52.124;5.196;2023-01-15T02:06:50;7.07;;;1.30;;
20731;SDS011;10527;52.124;5.196;2023-01-15T02:09:17;11.63;;;1.50;;
20731;SDS011;10527;52.124;5.196;2023-01-15T02:11:44;7.77;;;1.90;;
20731;SDS011;10527;52.124;5.196;2023-01-15T02:16:46;5.40;;;1.43;;
20731;SDS011;10527;52.124;5.196;2023-01-15T02:23:30;8.03;;;1.53;;
20731;SDS011;10527;52.124;5.196;2023-01-15T02:28:48;10.70;;;2.07;;
20731;SDS011;10527;52.124;5.196;2023-01-15T02:32:01;8.90;;;2.50;;
20731;SDS011;10527;52.124;5.196;2023-01-15T02:34:51;4.93;;;1.73;;
20731;SDS011;10527;52.124;5.196;2023-01-15T02:37:26;7.60;;;1.57;;
20731;SDS011;10527;52.124;5.196;2023-01-15T02:39:58;11.77;;;2.07;;
20731;SDS011;10527;52.124;5.196;2023-01-15T02:42:27;11.00;;;1.77;;
20731;SDS011;10527;52.124;5.196;2023-01-15T02:44:57;6.40;;;1.40;;
20731;SDS011;10527;52.124;5.196;2023-01-15T02:47:28;10.13;;;1.80;;
20731;SDS011;10527;52.124;5.196;2023-01-15T02:50:02;6.60;;;1.97;;
20731;SDS011;10527;52.124;5.196;2023-01-15T02:52:38;9.17;;;1.63;;
20731;SDS011;10527;52.124;5.196;2023-01-15T02:55:31;6.47;;;1.30;;
20731;SDS011;10527;52.124;5.196;2023-01-15T02:58:24;16.60;;;3.73;;
20731;SDS011;10527;52.124;5.196;2023-01-15T03:00:57;7.90;;;1.30;;
20731;SDS011;10527;52.124;5.196;2023-01-15T03:06:36;12.87;;;2.67;;
20731;SDS011;10527;52.124;5.196;2023-01-15T03:10:01;7.20;;;1.20;;
20731;SDS011;10527;52.124;5.196;2023-01-15T03:15:35;7.33;;;1.10;;
20731;SDS011;10527;52.124;5.196;2023-01-15T03:18:36;7.93;;;2.70;;
20731;SDS011;10527;52.124;5.196;2023-01-15T03:21:12;7.53;;;1.63;;
20731;SDS011;10527;52.124;5.196;2023-01-15T03:23:48;9.63;;;1.60;;
20731;SDS011;10527;52.124;5.196;2023-01-15T03:26:20;6.50;;;1.40;;
20731;SDS011;10527;52.124;5.196;2023-01-15T03:28:46;3.63;;;1.17;;
20731;SDS011;10527;52.124;5.196;2023-01-15T03:31:15;7.50;;;1.20;;
20731;SDS011;10527;52.124;5.196;2023-01-15T03:33:42;8.33;;;1.50;;
20731;SDS011;10527;52.124;5.196;2023-01-15T03:36:09;8.07;;;1.27;;
20731;SDS011;10527;52.124;5.196;2023-01-15T03:38:37;4.13;;;1.23;;
20731;SDS011;10527;52.124;5.196;2023-01-15T03:41:39;6.13;;;1.30;;
20731;SDS011;10527;52.124;5.196;2023-01-15T03:47:34;7.20;;;1.50;;
20731;SDS011;10527;52.124;5.196;2023-01-15T03:53:22;5.03;;;1.50;;
20731;SDS011;10527;52.124;5.196;2023-01-15T03:56:07;8.37;;;1.37;;
20731;SDS011;10527;52.124;5.196;2023-01-15T03:59:05;6.23;;;1.47;;
20731;SDS011;10527;52.124;5.196;2023-01-15T04:01:58;10.23;;;1.70;;
20731;SDS011;10527;52.124;5.196;2023-01-15T04:04:47;7.40;;;1.43;;
20731;SDS011;10527;52.124;5.196;2023-01-15T04:07:17;7.07;;;1.37;;
20731;SDS011;10527;52.124;5.196;2023-01-15T04:09:45;6.13;;;1.10;;
20731;SDS011;10527;52.124;5.196;2023-01-15T04:12:12;8.60;;;1.90;;
20731;SDS011;10527;52.124;5.196;2023-01-15T04:14:39;7.27;;;1.57;;
20731;SDS011;10527;52.124;5.196;2023-01-15T04:17:06;10.80;;;1.73;;
20731;SDS011;10527;52.124;5.196;2023-01-15T04:19:32;7.27;;;1.23;;
20731;SDS011;10527;52.124;5.196;2023-01-15T04:21:59;4.50;;;1.30;;
20731;SDS011;10527;52.124;5.196;2023-01-15T04:24:26;8.23;;;1.20;;
20731;SDS011;10527;52.124;5.196;2023-01-15T04:26:53;5.13;;;1.17;;
20731;SDS011;10527;52.124;5.196;2023-01-15T04:29:20;8.97;;;1.50;;
20731;SDS011;10527;52.124;5.196;2023-01-15T04:31:47;7.83;;;1.97;;
20731;SDS011;10527;52.124;5.196;2023-01-15T04:34:18;5.53;;;1.30;;
20731;SDS011;10527;52.124;5.196;2023-01-15T04:36:45;8.73;;;1.20;;
20731;SDS011;10527;52.124;5.196;2023-01-15T04:39:13;8.83;;;1.63;;
20731;SDS011;10527;52.124;5.196;2023-01-15T04:41:40;7.00;;;1.53;;
20731;SDS011;10527;52.124;5.196;2023-01-15T04:44:25;8.23;;;1.13;;
20731;SDS011;10527;52.124;5.196;2023-01-15T04:46:54;7.10;;;1.20;;
20731;SDS011;10527;52.124;5.196;2023-01-15T04:49:25;4.63;;;1.10;;
20731;SDS011;10527;52.124;5.196;2023-01-15T04:51:52;4.67;;;1.33;;
20731;SDS011;10527;52.124;5.196;2023-01-15T04:54:19;9.33;;;1.30;;
20731;SDS011;10527;52.124;5.196;2023-01-15T04:56:49;6.17;;;0.90;;
20731;SDS011;10527;52.124;5.196;2023-01-15T04:59:21;7.63;;;1.20;;
20731;SDS011;10527;52.124;5.196;2023-01-15T05:01:51;4.30;;;1.30;;
20731;SDS011;10527;52.124;5.196;2023-01-15T05:04:30;4.47;;;1.07;;
20731;SDS011;10527;52.124;5.196;2023-01-15T05:06:59;7.27;;;1.60;;
20731;SDS011;10527;52.124;5.196;2023-01-15T05:09:30;6.03;;;1.50;;
20731;SDS011;10527;52.124;5.196;2023-01-15T05:11:57;5.97;;;1.30;;
20731;SDS011;10527;52.124;5.196;2023-01-15T05:14:24;3.60;;;1.00;;
20731;SDS011;10527;52.124;5.196;2023-01-15T05:16:51;10.27;;;1.20;;
20731;SDS011;10527;52.124;5.196;2023-01-15T05:19:18;9.53;;;1.33;;
20731;SDS011;10527;52.124;5.196;2023-01-15T05:21:45;7.87;;;1.40;;
20731;SDS011;10527;52.124;5.196;2023-01-15T05:24:13;6.77;;;1.53;;
20731;SDS011;10527;52.124;5.196;2023-01-15T05:26:42;8.67;;;1.57;;
20731;SDS011;10527;52.124;5.196;2023-01-15T05:29:10;7.20;;;1.17;;
20731;SDS011;10527;52.124;5.196;2023-01-15T05:31:38;9.57;;;1.90;;
20731;SDS011;10527;52.124;5.196;2023-01-15T05:34:07;8.53;;;1.40;;
20731;SDS011;10527;52.124;5.196;2023-01-15T05:36:35;8.90;;;1.33;;
20731;SDS011;10527;52.124;5.196;2023-01-15T05:39:03;8.17;;;1.20;;
20731;SDS011;10527;52.124;5.196;2023-01-15T05:41:30;4.77;;;1.20;;
20731;SDS011;10527;52.124;5.196;2023-01-15T05:46:55;4.80;;;1.50;;
20731;SDS011;10527;52.124;5.196;2023-01-15T05:49:31;4.53;;;1.10;;
20731;SDS011;10527;52.124;5.196;2023-01-15T05:51:59;6.70;;;1.30;;
20731;SDS011;10527;52.124;5.196;2023-01-15T05:54:29;6.07;;;1.20;;
20731;SDS011;10527;52.124;5.196;2023-01-15T05:56:59;5.93;;;1.47;;
20731;SDS011;10527;52.124;5.196;2023-01-15T05:59:27;8.17;;;1.60;;
20731;SDS011;10527;52.124;5.196;2023-01-15T06:01:56;9.87;;;1.53;;
20731;SDS011;10527;52.124;5.196;2023-01-15T06:04:24;11.03;;;1.33;;
20731;SDS011;10527;52.124;5.196;2023-01-15T06:06:54;10.50;;;1.37;;
20731;SDS011;10527;52.124;5.196;2023-01-15T06:09:23;7.00;;;1.50;;
20731;SDS011;10527;52.124;5.196;2023-01-15T06:11:53;2.83;;;0.93;;
20731;SDS011;10527;52.124;5.196;2023-01-15T06:14:20;7.10;;;1.33;;
20731;SDS011;10527;52.124;5.196;2023-01-15T06:16:47;4.67;;;1.00;;
20731;SDS011;10527;52.124;5.196;2023-01-15T06:19:14;4.07;;;0.80;;
20731;SDS011;10527;52.124;5.196;2023-01-15T06:21:41;2.70;;;0.80;;
20731;SDS011;10527;52.124;5.196;2023-01-15T06:24:08;12.20;;;1.20;;
20731;SDS011;10527;52.124;5.196;2023-01-15T06:26:36;3.73;;;1.10;;
20731;SDS011;10527;52.124;5.196;2023-01-15T06:29:04;5.60;;;1.00;;
20731;SDS011;10527;52.124;5.196;2023-01-15T06:31:31;4.73;;;1.30;;
20731;SDS011;10527;52.124;5.196;2023-01-15T06:33:58;9.27;;;1.33;;
20731;SDS011;10527;52.124;5.196;2023-01-15T06:36:26;8.83;;;1.60;;
20731;SDS011;10527;52.124;5.196;2023-01-15T06:38:54;5.67;;;1.57;;
20731;SDS011;10527;52.124;5.196;2023-01-15T06:41:22;6.40;;;1.30;;
20731;SDS011;10527;52.124;5.196;2023-01-15T06:44:10;9.77;;;1.30;;
20731;SDS011;10527;52.124;5.196;2023-01-15T06:47:08;7.93;;;1.90;;
20731;SDS011;10527;52.124;5.196;2023-01-15T06:49:53;4.33;;;0.90;;
20731;SDS011;10527;52.124;5.196;2023-01-15T06:52:29;5.60;;;1.00;;
20731;SDS011;10527;52.124;5.196;2023-01-15T06:54:56;6.30;;;1.47;;
20731;SDS011;10527;52.124;5.196;2023-01-15T06:57:23;4.33;;;1.00;;
20731;SDS011;10527;52.124;5.196;2023-01-15T06:59:50;4.57;;;1.30;;
20731;SDS011;10527;52.124;5.196;2023-01-15T07:02:17;3.47;;;0.97;;
20731;SDS011;10527;52.124;5.196;2023-01-15T07:04:45;7.40;;;1.10;;
20731;SDS011;10527;52.124;5.196;2023-01-15T07:07:13;5.00;;;0.90;;
20731;SDS011;10527;52.124;5.196;2023-01-15T07:09:42;5.37;;;1.40;;
20731;SDS011;10527;52.124;5.196;2023-01-15T07:12:10;8.43;;;1.20;;
20731;SDS011;10527;52.124;5.196;2023-01-15T07:14:37;4.70;;;1.10;;
20731;SDS011;10527;52.124;5.196;2023-01-15T07:17:03;4.67;;;1.20;;
20731;SDS011;10527;52.124;5.196;2023-01-15T07:19:30;5.80;;;1.10;;
20731;SDS011;10527;52.124;5.196;2023-01-15T07:21:57;6.37;;;1.17;;
20731;SDS011;10527;52.124;5.196;2023-01-15T07:24:24;3.90;;;1.03;;
20731;SDS011;10527;52.124;5.196;2023-01-15T07:26:51;4.77;;;0.97;;
20731;SDS011;10527;52.124;5.196;2023-01-15T07:29:18;7.07;;;3.57;;
20731;SDS011;10527;52.124;5.196;2023-01-15T07:31:45;5.30;;;2.70;;
20731;SDS011;10527;52.124;5.196;2023-01-15T07:34:11;6.20;;;2.13;;
20731;SDS011;10527;52.124;5.196;2023-01-15T07:36:39;6.30;;;1.67;;
20731;SDS011;10527;52.124;5.196;2023-01-15T07:39:07;10.00;;;1.27;;
20731;SDS011;10527;52.124;5.196;2023-01-15T07:41:35;4.23;;;1.10;;
20731;SDS011;10527;52.124;5.196;2023-01-15T07:44:21;5.87;;;1.00;;
20731;SDS011;10527;52.124;5.196;2023-01-15T07:47:13;7.63;;;1.50;;
20731;SDS011;10527;52.124;5.196;2023-01-15T07:50:06;6.90;;;0.90;;
20731;SDS011;10527;52.124;5.196;2023-01-15T07:52:38;5.10;;;0.80;;
20731;SDS011;10527;52.124;5.196;2023-01-15T07:55:04;6.20;;;1.17;;
20731;SDS011;10527;52.124;5.196;2023-01-15T07:57:33;4.47;;;1.23;;
20731;SDS011;10527;52.124;5.196;2023-01-15T08:00:02;5.07;;;1.10;;
20731;SDS011;10527;52.124;5.196;2023-01-15T08:02:39;5.40;;;1.30;;
20731;SDS011;10527;52.124;5.196;2023-01-15T08:05:07;3.43;;;0.80;;
20731;SDS011;10527;52.124;5.196;2023-01-15T08:07:40;8.23;;;1.30;;
20731;SDS011;10527;52.124;5.196;2023-01-15T08:10:08;2.47;;;0.90;;
20731;SDS011;10527;52.124;5.196;2023-01-15T08:12:38;9.90;;;1.30;;
20731;SDS011;10527;52.124;5.196;2023-01-15T08:15:25;3.80;;;1.10;;
20731;SDS011;10527;52.124;5.196;2023-01-15T08:17:53;5.73;;;1.17;;
20731;SDS011;10527;52.124;5.196;2023-01-15T08:20:23;3.13;;;1.00;;
20731;SDS011;10527;52.124;5.196;2023-01-15T08:22:54;7.67;;;1.00;;
20731;SDS011;10527;52.124;5.196;2023-01-15T08:25:23;8.87;;;1.20;;
20731;SDS011;10527;52.124;5.196;2023-01-15T08:27:51;8.87;;;1.27;;
20731;SDS011;10527;52.124;5.196;2023-01-15T08:30:20;9.23;;;1.23;;
20731;SDS011;10527;52.124;5.196;2023-01-15T08:32:58;5.70;;;1.30;;
20731;SDS011;10527;52.124;5.196;2023-01-15T08:35:27;8.10;;;1.37;;
20731;SDS011;10527;52.124;5.196;2023-01-15T08:37:54;7.67;;;1.27;;
20731;SDS011;10527;52.124;5.196;2023-01-15T08:40:21;8.80;;;1.77;;
20731;SDS011;10527;52.124;5.196;2023-01-15T08:42:48;7.10;;;1.57;;
20731;SDS011;10527;52.124;5.196;2023-01-15T08:45:14;6.70;;;0.83;;
20731;SDS011;10527;52.124;5.196;2023-01-15T08:47:41;5.07;;;1.47;;
20731;SDS011;10527;52.124;5.196;2023-01-15T08:50:08;8.60;;;1.43;;
20731;SDS011;10527;52.124;5.196;2023-01-15T08:52:36;5.93;;;1.47;;
20731;SDS011;10527;52.124;5.196;2023-01-15T08:55:04;7.57;;;1.30;;
20731;SDS011;10527;52.124;5.196;2023-01-15T08:57:32;11.83;;;1.50;;
20731;SDS011;10527;52.124;5.196;2023-01-15T08:59:59;6.17;;;1.50;;
20731;SDS011;10527;52.124;5.196;2023-01-15T09:02:26;8.50;;;2.60;;
20731;SDS011;10527;52.124;5.196;2023-01-15T09:04:54;7.90;;;1.77;;
20731;SDS011;10527;52.124;5.196;2023-01-15T09:07:21;5.13;;;1.33;;
20731;SDS011;10527;52.124;5.196;2023-01-15T09:09:48;5.03;;;1.33;;
20731;SDS011;10527;52.124;5.196;2023-01-15T09:12:15;7.67;;;1.43;;
20731;SDS011;10527;52.124;5.196;2023-01-15T09:14:42;9.53;;;1.67;;
20731;SDS011;10527;52.124;5.196;2023-01-15T09:17:27;4.47;;;1.60;;
20731;SDS011;10527;52.124;5.196;2023-01-15T09:19:54;6.60;;;1.30;;
20731;SDS011;10527;52.124;5.196;2023-01-15T09:22:21;8.90;;;1.70;;
20731;SDS011;10527;52.124;5.196;2023-01-15T09:24:48;8.93;;;1.77;;
20731;SDS011;10527;52.124;5.196;2023-01-15T09:27:15;6.47;;;1.53;;
20731;SDS011;10527;52.124;5.196;2023-01-15T09:29:42;8.23;;;1.23;;
20731;SDS011;10527;52.124;5.196;2023-01-15T09:32:09;6.17;;;1.47;;
20731;SDS011;10527;52.124;5.196;2023-01-15T09:34:36;8.53;;;1.27;;
20731;SDS011;10527;52.124;5.196;2023-01-15T09:37:02;7.83;;;2.63;;
20731;SDS011;10527;52.124;5.196;2023-01-15T09:39:30;7.33;;;1.37;;
20731;SDS011;10527;52.124;5.196;2023-01-15T09:45:16;7.80;;;1.17;;
20731;SDS011;10527;52.124;5.196;2023-01-15T09:51:06;10.83;;;1.43;;
20731;SDS011;10527;52.124;5.196;2023-01-15T09:56:30;9.30;;;1.73;;
20731;SDS011;10527;52.124;5.196;2023-01-15T09:59:04;5.33;;;1.13;;
20731;SDS011;10527;52.124;5.196;2023-01-15T10:01:46;6.67;;;1.80;;
20731;SDS011;10527;52.124;5.196;2023-01-15T10:04:22;9.33;;;1.90;;
20731;SDS011;10527;52.124;5.196;2023-01-15T10:09:49;8.47;;;1.43;;
20731;SDS011;10527;52.124;5.196;2023-01-15T10:12:29;9.73;;;1.73;;
20731;SDS011;10527;52.124;5.196;2023-01-15T10:17:43;6.20;;;1.57;;
20731;SDS011;10527;52.124;5.196;2023-01-15T10:29:36;11.73;;;2.20;;
20731;SDS011;10527;52.124;5.196;2023-01-15T10:37:53;7.20;;;1.97;;
20731;SDS011;10527;52.124;5.196;2023-01-15T10:46:42;6.83;;;1.90;;
20731;SDS011;10527;52.124;5.196;2023-01-15T10:49:25;8.00;;;2.70;;
20731;SDS011;10527;52.124;5.196;2023-01-15T10:51:56;4.03;;;1.47;;
20731;SDS011;10527;52.124;5.196;2023-01-15T10:54:37;7.70;;;1.57;;
20731;SDS011;10527;52.124;5.196;2023-01-15T10:57:16;9.50;;;1.83;;
20731;SDS011;10527;52.124;5.196;2023-01-15T11:00:09;8.63;;;1.30;;
20731;SDS011;10527;52.124;5.196;2023-01-15T11:02:44;6.13;;;1.13;;
20731;SDS011;10527;52.124;5.196;2023-01-15T11:05:21;6.47;;;1.23;;
20731;SDS011;10527;52.124;5.196;2023-01-15T11:07:49;8.07;;;1.43;;
20731;SDS011;10527;52.124;5.196;2023-01-15T11:10:38;6.23;;;1.20;;
20731;SDS011;10527;52.124;5.196;2023-01-15T11:13:20;5.57;;;1.50;;
20731;SDS011;10527;52.124;5.196;2023-01-15T11:16:14;8.03;;;1.40;;
20731;SDS011;10527;52.124;5.196;2023-01-15T11:19:23;5.43;;;1.50;;
20731;SDS011;10527;52.124;5.196;2023-01-15T11:22:06;7.90;;;2.00;;
20731;SDS011;10527;52.124;5.196;2023-01-15T11:24:49;10.07;;;2.10;;
20731;SDS011;10527;52.124;5.196;2023-01-15T11:27:29;12.67;;;1.87;;
20731;SDS011;10527;52.124;5.196;2023-01-15T11:29:59;7.30;;;1.40;;
20731;SDS011;10527;52.124;5.196;2023-01-15T11:32:33;4.53;;;1.30;;
20731;SDS011;10527;52.124;5.196;2023-01-15T11:37:34;6.70;;;1.80;;
20731;SDS011;10527;52.124;5.196;2023-01-15T11:40:01;5.47;;;1.40;;
20731;SDS011;10527;52.124;5.196;2023-01-15T11:42:35;9.57;;;1.50;;
20731;SDS011;10527;52.124;5.196;2023-01-15T11:45:22;7.90;;;1.40;;
20731;SDS011;10527;52.124;5.196;2023-01-15T11:48:15;6.87;;;1.80;;
20731;SDS011;10527;52.124;5.196;2023-01-15T11:51:08;9.00;;;1.70;;
20731;SDS011;10527;52.124;5.196;2023-01-15T11:53:43;8.37;;;1.30;;
20731;SDS011;10527;52.124;5.196;2023-01-15T11:56:19;10.63;;;2.87;;
20731;SDS011;10527;52.124;5.196;2023-01-15T11:58:55;6.97;;;1.80;;
20731;SDS011;10527;52.124;5.196;2023-01-15T12:01:34;6.70;;;1.50;;
20731;SDS011;10527;52.124;5.196;2023-01-15T12:06:57;9.37;;;1.80;;
20731;SDS011;10527;52.124;5.196;2023-01-15T12:12:12;5.80;;;1.40;;
20731;SDS011;10527;52.124;5.196;2023-01-15T12:15:08;10.03;;;1.40;;
20731;SDS011;10527;52.124;5.196;2023-01-15T12:21:01;8.10;;;1.37;;
20731;SDS011;10527;52.124;5.196;2023-01-15T12:26:56;7.20;;;1.40;;
20731;SDS011;10527;52.124;5.196;2023-01-15T12:32:34;9.27;;;1.23;;
20731;SDS011;10527;52.124;5.196;2023-01-15T12:35:14;7.67;;;1.80;;
20731;SDS011;10527;52.124;5.196;2023-01-15T12:38:00;6.33;;;1.13;;
20731;SDS011;10527;52.124;5.196;2023-01-15T12:40:50;8.33;;;1.93;;
20731;SDS011;10527;52.124;5.196;2023-01-15T12:43:26;6.00;;;1.63;;
20731;SDS011;10527;52.124;5.196;2023-01-15T12:46:16;5.90;;;1.93;;
20731;SDS011;10527;52.124;5.196;2023-01-15T12:49:15;6.77;;;1.40;;
20731;SDS011;10527;52.124;5.196;2023-01-15T12:52:13;6.50;;;1.60;;
20731;SDS011;10527;52.124;5.196;2023-01-15T12:54:51;7.07;;;1.60;;
20731;SDS011;10527;52.124;5.196;2023-01-15T12:57:37;5.03;;;1.47;;
20731;SDS011;10527;52.124;5.196;2023-01-15T13:05:47;8.87;;;2.10;;
20731;SDS011;10527;52.124;5.196;2023-01-15T13:08:24;10.27;;;1.73;;
20731;SDS011;10527;52.124;5.196;2023-01-15T13:11:11;10.47;;;2.50;;
20731;SDS011;10527;52.124;5.196;2023-01-15T13:13:39;9.77;;;1.83;;
20731;SDS011;10527;52.124;5.196;2023-01-15T13:21:56;8.53;;;1.53;;
20731;SDS011;10527;52.124;5.196;2023-01-15T13:33:25;5.20;;;1.27;;
20731;SDS011;10527;52.124;5.196;2023-01-15T13:36:13;11.87;;;2.07;;
20731;SDS011;10527;52.124;5.196;2023-01-15T13:38:48;6.97;;;1.73;;
20731;SDS011;10527;52.124;5.196;2023-01-15T13:41:22;6.37;;;1.17;;
20731;SDS011;10527;52.124;5.196;2023-01-15T13:44:22;10.43;;;1.50;;
20731;SDS011;10527;52.124;5.196;2023-01-15T13:46:58;12.20;;;1.60;;
20731;SDS011;10527;52.124;5.196;2023-01-15T13:49:57;10.53;;;1.40;;
20731;SDS011;10527;52.124;5.196;2023-01-15T13:55:00;8.23;;;1.33;;
20731;SDS011;10527;52.124;5.196;2023-01-15T13:57:52;10.07;;;1.50;;
20731;SDS011;10527;52.124;5.196;2023-01-15T14:03:25;4.50;;;1.17;;
20731;SDS011;10527;52.124;5.196;2023-01-15T14:05:55;9.40;;;1.83;;
20731;SDS011;10527;52.124;5.196;2023-01-15T14:08:43;4.10;;;1.20;;
20731;SDS011;10527;52.124;5.196;2023-01-15T14:22:53;6.53;;;1.33;;
20731;SDS011;10527;52.124;5.196;2023-01-15T14:31:38;8.03;;;1.80;;
20731;SDS011;10527;52.124;5.196;2023-01-15T14:34:23;5.57;;;1.23;;
20731;SDS011;10527;52.124;5.196;2023-01-15T14:36:55;5.77;;;1.77;;
20731;SDS011;10527;52.124;5.196;2023-01-15T14:39:33;9.03;;;1.77;;
20731;SDS011;10527;52.124;5.196;2023-01-15T14:42:33;5.00;;;1.60;;
20731;SDS011;10527;52.124;5.196;2023-01-15T14:50:53;9.43;;;2.83;;
20731;SDS011;10527;52.124;5.196;2023-01-15T14:53:39;9.13;;;2.50;;
20731;SDS011;10527;52.124;5.196;2023-01-15T14:56:43;10.67;;;2.60;;
20731;SDS011;10527;52.124;5.196;2023-01-15T14:59:19;12.40;;;2.47;;
20731;SDS011;10527;52.124;5.196;2023-01-15T15:02:14;5.07;;;1.50;;
20731;SDS011;10527;52.124;5.196;2023-01-15T15:04:52;7.87;;;1.57;;
20731;SDS011;10527;52.124;5.196;2023-01-15T15:07:25;12.10;;;4.07;;
20731;SDS011;10527;52.124;5.196;2023-01-15T15:10:05;15.40;;;2.77;;
20731;SDS011;10527;52.124;5.196;2023-01-15T15:13:05;9.80;;;2.33;;
20731;SDS011;10527;52.124;5.196;2023-01-15T15:21:57;7.63;;;1.57;;
20731;SDS011;10527;52.124;5.196;2023-01-15T15:24:33;9.20;;;2.40;;
20731;SDS011;10527;52.124;5.196;2023-01-15T15:27:13;7.33;;;2.07;;
20731;SDS011;10527;52.124;5.196;2023-01-15T15:29:49;4.80;;;2.17;;
20731;SDS011;10527;52.124;5.196;2023-01-15T15:32:17;11.17;;;2.60;;
20731;SDS011;10527;52.124;5.196;2023-01-15T15:34:51;8.33;;;1.90;;
20731;SDS011;10527;52.124;5.196;2023-01-15T15:37:25;11.83;;;1.83;;
20731;SDS011;10527;52.124;5.196;2023-01-15T15:43:05;8.67;;;1.90;;
20731;SDS011;10527;52.124;5.196;2023-01-15T15:46:31;9.00;;;1.93;;
20731;SDS011;10527;52.124;5.196;2023-01-15T15:49:17;9.20;;;1.50;;
20731;SDS011;10527;52.124;5.196;2023-01-15T15:51:49;5.67;;;1.40;;
20731;SDS011;10527;52.124;5.196;2023-01-15T15:54:26;4.47;;;1.33;;
20731;SDS011;10527;52.124;5.196;2023-01-15T15:56:56;8.37;;;1.97;;
20731;SDS011;10527;52.124;5.196;2023-01-15T15:59:33;10.53;;;2.60;;
20731;SDS011;10527;52.124;5.196;2023-01-15T16:05:23;6.23;;;1.57;;
20731;SDS011;10527;52.124;5.196;2023-01-15T16:07:54;4.83;;;1.13;;
20731;SDS011;10527;52.124;5.196;2023-01-15T16:13:06;7.23;;;2.40;;
20731;SDS011;10527;52.124;5.196;2023-01-15T16:15:49;9.67;;;3.43;;
20731;SDS011;10527;52.124;5.196;2023-01-15T16:18:23;12.13;;;3.40;;
20731;SDS011;10527;52.124;5.196;2023-01-15T16:20:53;10.20;;;2.90;;
20731;SDS011;10527;52.124;5.196;2023-01-15T16:23:23;20.87;;;9.43;;
20731;SDS011;10527;52.124;5.196;2023-01-15T16:26:05;22.17;;;10.63;;
20731;SDS011;10527;52.124;5.196;2023-01-15T16:28:52;7.37;;;4.33;;
20731;SDS011;10527;52.124;5.196;2023-01-15T16:31:26;9.63;;;5.17;;
20731;SDS011;10527;52.124;5.196;2023-01-15T16:33:59;9.03;;;3.63;;
20731;SDS011;10527;52.124;5.196;2023-01-15T16:36:27;10.30;;;3.77;;
20731;SDS011;10527;52.124;5.196;2023-01-15T16:39:05;6.50;;;3.20;;
20731;SDS011;10527;52.124;5.196;2023-01-15T16:41:53;8.87;;;4.00;;
20731;SDS011;10527;52.124;5.196;2023-01-15T16:44:35;5.20;;;2.03;;
20731;SDS011;10527;52.124;5.196;2023-01-15T16:47:16;8.23;;;2.20;;
20731;SDS011;10527;52.124;5.196;2023-01-15T16:52:54;6.37;;;1.60;;
20731;SDS011;10527;52.124;5.196;2023-01-15T16:55:38;4.23;;;2.00;;
20731;SDS011;10527;52.124;5.196;2023-01-15T17:00:42;6.13;;;1.60;;
20731;SDS011;10527;52.124;5.196;2023-01-15T17:03:13;6.10;;;1.67;;
20731;SDS011;10527;52.124;5.196;2023-01-15T17:05:45;10.30;;;2.07;;
20731;SDS011;10527;52.124;5.196;2023-01-15T17:08:18;5.50;;;1.90;;
20731;SDS011;10527;52.124;5.196;2023-01-15T17:10:53;8.43;;;2.10;;
20731;SDS011;10527;52.124;5.196;2023-01-15T17:13:44;7.63;;;3.30;;
20731;SDS011;10527;52.124;5.196;2023-01-15T17:16:21;6.63;;;2.23;;
20731;SDS011;10527;52.124;5.196;2023-01-15T17:18:49;6.77;;;2.07;;
20731;SDS011;10527;52.124;5.196;2023-01-15T17:21:20;5.17;;;1.93;;
20731;SDS011;10527;52.124;5.196;2023-01-15T17:23:53;11.37;;;5.37;;
20731;SDS011;10527;52.124;5.196;2023-01-15T17:26:21;8.20;;;3.23;;
20731;SDS011;10527;52.124;5.196;2023-01-15T17:28:52;6.60;;;2.40;;
20731;SDS011;10527;52.124;5.196;2023-01-15T17:33:51;5.17;;;2.00;;
20731;SDS011;10527;52.124;5.196;2023-01-15T17:36:21;10.37;;;3.83;;
20731;SDS011;10527;52.124;5.196;2023-01-15T17:38:49;11.77;;;4.63;;
20731;SDS011;10527;52.124;5.196;2023-01-15T17:41:17;8.70;;;2.87;;
20731;SDS011;10527;52.124;5.196;2023-01-15T17:43:47;9.87;;;2.30;;
20731;SDS011;10527;52.124;5.196;2023-01-15T17:46:15;4.33;;;1.67;;
20731;SDS011;10527;52.124;5.196;2023-01-15T17:48:42;3.50;;;1.43;;
20731;SDS011;10527;52.124;5.196;2023-01-15T17:51:10;5.73;;;1.60;;
20731;SDS011;10527;52.124;5.196;2023-01-15T17:53:40;9.73;;;1.97;;
20731;SDS011;10527;52.124;5.196;2023-01-15T17:56:07;5.00;;;1.47;;
20731;SDS011;10527;52.124;5.196;2023-01-15T17:58:53;5.50;;;1.47;;